sensor_id;sensor_type;location;lat;lon;timestamp;pressure;altitude;pressure_sealevel;temperature;humidity
69171;BME280;56279;47.902;12.308;2022-11-20T00:02:00;94855.44;;;6.05;86.05
69171;BME280;56279;47.902;12.308;2022-11-20T00:04:01;94848.66;;;6.04;85.70
69171;BME280;56279;47.902;12.308;2022-11-20T00:06:04;94856.50;;;6.04;85.51
69171;BME280;56279;47.902;12.308;2022-11-20T00:08:05;94855.72;;;6.03;85.50
69171;BME280;56279;47.902;12.308;2022-11-20T00:10:07;94853.34;;;6.02;85.68
69171;BME280;56279;47.902;12.308;2022-11-20T00:12:08;94854.38;;;6.01;85.54
69171;BME280;56279;47.902;12.308;2022-11-20T00:14:10;94859.09;;;5.99;85.39
69171;BME280;56279;47.902;12.308;2022-11-20T00:16:13;94848.91;;;5.97;85.62
69171;BME280;56279;47.902;12.308;2022-11-20T00:18:15;94854.88;;;5.93;85.64
69171;BME280;56279;47.902;12.308;2022-11-20T00:20:17;94856.22;;;5.90;85.37
69171;BME280;56279;47.902;12.308;2022-11-20T00:22:18;94855.66;;;5.88;85.61
69171;BME280;56279;47.902;12.308;2022-11-20T00:24:19;94855.94;;;5.87;85.45
69171;BME280;56279;47.902;12.308;2022-11-20T00:26:22;94862.22;;;5.86;85.78
69171;BME280;56279;47.902;12.308;2022-11-20T00:28:24;94863.53;;;5.88;85.89
69171;BME280;56279;47.902;12.308;2022-11-20T00:30:25;94865.09;;;5.89;85.46
69171;BME280;56279;47.902;12.308;2022-11-20T00:32:26;94862.75;;;5.93;85.09
69171;BME280;56279;47.902;12.308;2022-11-20T00:34:27;94868.53;;;5.95;85.37
69171;BME280;56279;47.902;12.308;2022-11-20T00:36:32;94869.06;;;5.97;84.92
69171;BME280;56279;47.902;12.308;2022-11-20T00:38:34;94866.69;;;6.00;84.96
69171;BME280;56279;47.902;12.308;2022-11-20T00:40:35;94872.47;;;6.02;84.62
69171;BME280;56279;47.902;12.308;2022-11-20T00:42:37;94866.44;;;6.02;84.92
69171;BME280;56279;47.902;12.308;2022-11-20T00:44:38;94875.88;;;6.03;84.99
69171;BME280;56279;47.902;12.308;2022-11-20T00:46:39;94875.63;;;6.04;84.77
69171;BME280;56279;47.902;12.308;2022-11-20T00:48:41;94883.22;;;6.06;84.29
69171;BME280;56279;47.902;12.308;2022-11-20T00:50:42;94883.22;;;6.06;84.27
69171;BME280;56279;47.902;12.308;2022-11-20T00:52:44;94874.56;;;6.05;84.31
69171;BME280;56279;47.902;12.308;2022-11-20T00:54:45;94873.78;;;6.05;84.32
69171;BME280;56279;47.902;12.308;2022-11-20T00:56:46;94879.00;;;6.05;84.10
69171;BME280;56279;47.902;12.308;2022-11-20T00:58:48;94877.44;;;6.04;84.41
69171;BME280;56279;47.902;12.308;2022-11-20T01:00:50;94880.88;;;6.04;84.22
69171;BME280;56279;47.902;12.308;2022-11-20T01:02:51;94882.41;;;6.05;84.41
69171;BME280;56279;47.902;12.308;2022-11-20T01:04:53;94883.47;;;6.04;84.43
69171;BME280;56279;47.902;12.308;2022-11-20T01:06:54;94881.09;;;6.03;84.21
69171;BME280;56279;47.902;12.308;2022-11-20T01:08:57;94884.53;;;6.03;84.29
69171;BME280;56279;47.902;12.308;2022-11-20T01:11:04;94893.16;;;6.04;84.30
69171;BME280;56279;47.902;12.308;2022-11-20T01:13:06;94893.16;;;6.04;84.52
69171;BME280;56279;47.902;12.308;2022-11-20T01:15:26;94888.47;;;6.06;84.28
69171;BME280;56279;47.902;12.308;2022-11-20T01:17:27;94893.69;;;6.06;84.32
69171;BME280;56279;47.902;12.308;2022-11-20T01:19:28;94891.06;;;6.06;84.07
69171;BME280;56279;47.902;12.308;2022-11-20T01:21:32;94897.88;;;6.07;84.16
69171;BME280;56279;47.902;12.308;2022-11-20T01:23:37;94899.72;;;6.06;84.04
69171;BME280;56279;47.902;12.308;2022-11-20T01:25:38;94909.94;;;6.08;84.46
69171;BME280;56279;47.902;12.308;2022-11-20T01:27:39;94895.00;;;6.08;83.94
69171;BME280;56279;47.902;12.308;2022-11-20T01:29:41;94896.56;;;6.09;84.29
69171;BME280;56279;47.902;12.308;2022-11-20T01:31:42;94895.53;;;6.10;83.88
69171;BME280;56279;47.902;12.308;2022-11-20T01:33:46;94901.56;;;6.11;83.93
69171;BME280;56279;47.902;12.308;2022-11-20T01:35:47;94897.88;;;6.12;83.91
69171;BME280;56279;47.902;12.308;2022-11-20T01:37:50;94902.09;;;6.13;83.95
69171;BME280;56279;47.902;12.308;2022-11-20T01:39:51;94905.22;;;6.15;83.86
69171;BME280;56279;47.902;12.308;2022-11-20T01:41:53;94897.09;;;6.16;83.84
69171;BME280;56279;47.902;12.308;2022-11-20T01:44:16;94902.34;;;6.16;84.14
69171;BME280;56279;47.902;12.308;2022-11-20T01:46:19;94900.53;;;6.17;84.05
69171;BME280;56279;47.902;12.308;2022-11-20T01:48:22;94899.72;;;6.16;83.62
69171;BME280;56279;47.902;12.308;2022-11-20T01:50:26;94900.53;;;6.17;83.99
69171;BME280;56279;47.902;12.308;2022-11-20T01:52:37;94898.69;;;6.17;83.75
69171;BME280;56279;47.902;12.308;2022-11-20T01:54:45;94905.75;;;6.17;83.51
69171;BME280;56279;47.902;12.308;2022-11-20T01:56:51;94896.34;;;6.16;83.88
69171;BME280;56279;47.902;12.308;2022-11-20T01:58:58;94900.53;;;6.17;83.72
69171;BME280;56279;47.902;12.308;2022-11-20T02:01:03;94900.53;;;6.17;83.74
69171;BME280;56279;47.902;12.308;2022-11-20T02:03:08;94898.16;;;6.15;83.63
69171;BME280;56279;47.902;12.308;2022-11-20T02:07:59;94889.53;;;6.15;83.78
69171;BME280;56279;47.902;12.308;2022-11-20T02:10:01;94888.19;;;6.12;83.81
69171;BME280;56279;47.902;12.308;2022-11-20T02:12:03;94893.72;;;6.11;83.54
69171;BME280;56279;47.902;12.308;2022-11-20T02:14:04;94893.72;;;6.11;83.93
69171;BME280;56279;47.902;12.308;2022-11-20T02:16:13;94892.13;;;6.10;83.98
69171;BME280;56279;47.902;12.308;2022-11-20T02:18:17;94891.31;;;6.09;83.87
69171;BME280;56279;47.902;12.308;2022-11-20T02:20:19;94895.81;;;6.09;83.77
69171;BME280;56279;47.902;12.308;2022-11-20T02:22:31;94888.97;;;6.08;83.91
69171;BME280;56279;47.902;12.308;2022-11-20T02:24:34;94890.56;;;6.09;83.90
69171;BME280;56279;47.902;12.308;2022-11-20T02:26:57;94892.63;;;6.07;83.69
69171;BME280;56279;47.902;12.308;2022-11-20T02:29:02;94902.06;;;6.08;83.81
69171;BME280;56279;47.902;12.308;2022-11-20T02:31:03;94896.03;;;6.07;83.82
69171;BME280;56279;47.902;12.308;2022-11-20T02:33:05;94908.91;;;6.09;83.56
69171;BME280;56279;47.902;12.308;2022-11-20T02:37:21;94892.13;;;6.10;83.62
69171;BME280;56279;47.902;12.308;2022-11-20T02:39:24;94901.56;;;6.11;83.53
69171;BME280;56279;47.902;12.308;2022-11-20T02:41:34;94906.00;;;6.10;83.45
69171;BME280;56279;47.902;12.308;2022-11-20T02:43:36;94894.47;;;6.11;83.42
69171;BME280;56279;47.902;12.308;2022-11-20T02:45:37;94896.84;;;6.13;83.50
69171;BME280;56279;47.902;12.308;2022-11-20T02:47:39;94889.78;;;6.13;83.48
69171;BME280;56279;47.902;12.308;2022-11-20T02:49:40;94897.66;;;6.13;83.73
69171;BME280;56279;47.902;12.308;2022-11-20T02:51:41;94902.09;;;6.13;83.38
69171;BME280;56279;47.902;12.308;2022-11-20T02:53:43;94900.78;;;6.15;83.66
69171;BME280;56279;47.902;12.308;2022-11-20T02:55:44;94897.66;;;6.13;83.42
69171;BME280;56279;47.902;12.308;2022-11-20T02:57:45;94897.38;;;6.15;83.48
69171;BME280;56279;47.902;12.308;2022-11-20T02:59:46;94894.75;;;6.15;83.33
69171;BME280;56279;47.902;12.308;2022-11-20T03:01:48;94894.75;;;6.15;83.06
69171;BME280;56279;47.902;12.308;2022-11-20T03:03:49;94897.91;;;6.17;83.45
69171;BME280;56279;47.902;12.308;2022-11-20T03:05:50;94893.44;;;6.17;83.51
69171;BME280;56279;47.902;12.308;2022-11-20T03:07:51;94900.25;;;6.18;83.63
69171;BME280;56279;47.902;12.308;2022-11-20T03:09:53;94899.47;;;6.18;83.60
69171;BME280;56279;47.902;12.308;2022-11-20T03:11:54;94901.03;;;6.19;83.59
69171;BME280;56279;47.902;12.308;2022-11-20T03:13:56;94899.22;;;6.19;83.47
69171;BME280;56279;47.902;12.308;2022-11-20T03:15:57;94898.19;;;6.20;83.69
69171;BME280;56279;47.902;12.308;2022-11-20T03:17:59;94896.59;;;6.19;83.27
69171;BME280;56279;47.902;12.308;2022-11-20T03:20:00;94896.88;;;6.18;83.38
69171;BME280;56279;47.902;12.308;2022-11-20T03:22:01;94895.28;;;6.17;83.49
69171;BME280;56279;47.902;12.308;2022-11-20T03:24:03;94899.47;;;6.18;83.52
69171;BME280;56279;47.902;12.308;2022-11-20T03:26:08;94899.47;;;6.18;83.33
69171;BME280;56279;47.902;12.308;2022-11-20T03:28:09;94896.88;;;6.18;83.10
69171;BME280;56279;47.902;12.308;2022-11-20T03:30:11;94902.09;;;6.18;83.15
69171;BME280;56279;47.902;12.308;2022-11-20T03:32:12;94896.06;;;6.17;83.16
69171;BME280;56279;47.902;12.308;2022-11-20T03:34:13;94902.09;;;6.18;83.19
69171;BME280;56279;47.902;12.308;2022-11-20T03:36:16;94895.28;;;6.17;83.31
69171;BME280;56279;47.902;12.308;2022-11-20T03:38:18;94897.91;;;6.17;82.91
69171;BME280;56279;47.902;12.308;2022-11-20T03:40:19;94899.72;;;6.16;82.98
69171;BME280;56279;47.902;12.308;2022-11-20T03:42:21;94898.69;;;6.12;82.79
69171;BME280;56279;47.902;12.308;2022-11-20T03:44:41;94900.50;;;6.12;83.09
69171;BME280;56279;47.902;12.308;2022-11-20T03:46:42;94892.91;;;6.10;82.62
69171;BME280;56279;47.902;12.308;2022-11-20T03:48:43;94903.66;;;6.09;82.86
69171;BME280;56279;47.902;12.308;2022-11-20T03:50:44;94897.63;;;6.08;82.90
69171;BME280;56279;47.902;12.308;2022-11-20T03:52:48;94893.94;;;6.09;83.53
69171;BME280;56279;47.902;12.308;2022-11-20T03:54:49;94896.03;;;6.07;83.09
69171;BME280;56279;47.902;12.308;2022-11-20T03:56:50;94896.31;;;6.06;82.74
69171;BME280;56279;47.902;12.308;2022-11-20T03:58:52;94897.34;;;6.05;83.31
69171;BME280;56279;47.902;12.308;2022-11-20T04:00:53;94899.19;;;6.04;82.97
69171;BME280;56279;47.902;12.308;2022-11-20T04:02:58;94904.94;;;6.01;83.23
69171;BME280;56279;47.902;12.308;2022-11-20T04:05:00;94903.34;;;6.00;83.23
69171;BME280;56279;47.902;12.308;2022-11-20T04:07:01;94914.09;;;5.99;83.02
69171;BME280;56279;47.902;12.308;2022-11-20T04:09:04;94906.25;;;5.99;82.94
69171;BME280;56279;47.902;12.308;2022-11-20T04:11:17;94913.56;;;5.97;83.19
69171;BME280;56279;47.902;12.308;2022-11-20T04:13:18;94912.78;;;5.96;83.19
69171;BME280;56279;47.902;12.308;2022-11-20T04:15:19;94910.16;;;5.96;82.99
69171;BME280;56279;47.902;12.308;2022-11-20T04:17:20;94915.66;;;5.95;83.32
69171;BME280;56279;47.902;12.308;2022-11-20T04:19:22;94909.63;;;5.94;83.15
69171;BME280;56279;47.902;12.308;2022-11-20T04:21:23;94907.25;;;5.93;83.37
69171;BME280;56279;47.902;12.308;2022-11-20T04:23:26;94905.69;;;5.92;83.27
69171;BME280;56279;47.902;12.308;2022-11-20T04:25:28;94907.78;;;5.90;83.38
69171;BME280;56279;47.902;12.308;2022-11-20T04:27:30;94911.44;;;5.89;83.67
69171;BME280;56279;47.902;12.308;2022-11-20T04:29:31;94905.16;;;5.85;83.43
69171;BME280;56279;47.902;12.308;2022-11-20T04:31:34;94910.06;;;5.81;83.69
69171;BME280;56279;47.902;12.308;2022-11-20T04:33:36;94915.03;;;5.78;83.81
69171;BME280;56279;47.902;12.308;2022-11-20T04:35:37;94914.53;;;5.76;83.47
69171;BME280;56279;47.902;12.308;2022-11-20T04:37:39;94911.91;;;5.76;83.79
69171;BME280;56279;47.902;12.308;2022-11-20T04:39:40;94908.75;;;5.74;83.93
69171;BME280;56279;47.902;12.308;2022-11-20T04:41:41;94905.88;;;5.75;83.80
69171;BME280;56279;47.902;12.308;2022-11-20T04:43:46;94911.91;;;5.76;83.59
69171;BME280;56279;47.902;12.308;2022-11-20T04:45:54;94904.84;;;5.76;83.65
69171;BME280;56279;47.902;12.308;2022-11-20T04:47:55;94912.16;;;5.79;83.74
69171;BME280;56279;47.902;12.308;2022-11-20T04:49:56;94908.78;;;5.79;83.42
69171;BME280;56279;47.902;12.308;2022-11-20T04:51:58;94907.72;;;5.80;83.37
69171;BME280;56279;47.902;12.308;2022-11-20T04:53:59;94907.72;;;5.80;83.62
69171;BME280;56279;47.902;12.308;2022-11-20T04:56:02;94913.47;;;5.77;83.36
69171;BME280;56279;47.902;12.308;2022-11-20T04:58:04;94909.28;;;5.76;83.40
69171;BME280;56279;47.902;12.308;2022-11-20T05:00:05;94913.72;;;5.75;83.40
69171;BME280;56279;47.902;12.308;2022-11-20T05:02:07;94906.66;;;5.76;83.26
69171;BME280;56279;47.902;12.308;2022-11-20T05:04:09;94909.53;;;5.74;83.71
69171;BME280;56279;47.902;12.308;2022-11-20T05:06:13;94920.25;;;5.73;83.65
69171;BME280;56279;47.902;12.308;2022-11-20T05:08:14;94917.66;;;5.73;83.62
69171;BME280;56279;47.902;12.308;2022-11-20T05:10:15;94921.31;;;5.72;83.59
69171;BME280;56279;47.902;12.308;2022-11-20T05:12:16;94915.28;;;5.71;83.74
69171;BME280;56279;47.902;12.308;2022-11-20T05:14:18;94915.28;;;5.71;84.09
69171;BME280;56279;47.902;12.308;2022-11-20T05:16:22;94915.00;;;5.68;83.78
69171;BME280;56279;47.902;12.308;2022-11-20T05:18:23;94918.16;;;5.70;84.34
69171;BME280;56279;47.902;12.308;2022-11-20T05:20:24;94921.81;;;5.69;83.84
69171;BME280;56279;47.902;12.308;2022-11-20T05:22:26;94917.63;;;5.68;83.97
69171;BME280;56279;47.902;12.308;2022-11-20T05:24:27;94920.22;;;5.68;84.02
69171;BME280;56279;47.902;12.308;2022-11-20T05:26:28;94918.41;;;5.68;84.25
69171;BME280;56279;47.902;12.308;2022-11-20T05:28:30;94920.75;;;5.70;84.36
69171;BME280;56279;47.902;12.308;2022-11-20T05:30:32;94922.63;;;5.69;84.17
69171;BME280;56279;47.902;12.308;2022-11-20T05:32:33;94921.56;;;5.70;84.10
69171;BME280;56279;47.902;12.308;2022-11-20T05:34:35;94923.38;;;5.70;84.23
69171;BME280;56279;47.902;12.308;2022-11-20T05:36:37;94922.34;;;5.71;84.50
69171;BME280;56279;47.902;12.308;2022-11-20T05:38:38;94927.06;;;5.69;84.30
69171;BME280;56279;47.902;12.308;2022-11-20T05:40:40;94916.59;;;5.69;84.45
69171;BME280;56279;47.902;12.308;2022-11-20T05:42:41;94928.63;;;5.70;84.64
69171;BME280;56279;47.902;12.308;2022-11-20T05:44:44;94921.03;;;5.68;84.52
69171;BME280;56279;47.902;12.308;2022-11-20T05:46:45;94925.47;;;5.68;84.77
69171;BME280;56279;47.902;12.308;2022-11-20T05:48:47;94925.47;;;5.68;84.71
69171;BME280;56279;47.902;12.308;2022-11-20T05:50:48;94919.44;;;5.67;84.45
69171;BME280;56279;47.902;12.308;2022-11-20T05:52:49;94921.81;;;5.69;84.08
69171;BME280;56279;47.902;12.308;2022-11-20T05:54:50;94921.03;;;5.68;84.43
69171;BME280;56279;47.902;12.308;2022-11-20T05:56:51;94925.25;;;5.69;84.36
69171;BME280;56279;47.902;12.308;2022-11-20T05:58:53;94926.00;;;5.70;84.67
69171;BME280;56279;47.902;12.308;2022-11-20T06:00:54;94918.94;;;5.70;84.38
69171;BME280;56279;47.902;12.308;2022-11-20T06:02:55;94928.13;;;5.73;84.20
69171;BME280;56279;47.902;12.308;2022-11-20T06:04:57;94927.31;;;5.72;84.13
69171;BME280;56279;47.902;12.308;2022-11-20T06:06:59;94932.56;;;5.72;84.57
69171;BME280;56279;47.902;12.308;2022-11-20T06:09:00;94932.56;;;5.72;84.23
69171;BME280;56279;47.902;12.308;2022-11-20T06:11:09;94934.13;;;5.68;84.24
69171;BME280;56279;47.902;12.308;2022-11-20T06:13:11;94935.94;;;5.68;84.17
69171;BME280;56279;47.902;12.308;2022-11-20T06:15:12;94939.34;;;5.68;84.06
69171;BME280;56279;47.902;12.308;2022-11-20T06:17:13;94937.53;;;5.69;84.10
69171;BME280;56279;47.902;12.308;2022-11-20T06:19:14;94934.91;;;5.69;84.02
69171;BME280;56279;47.902;12.308;2022-11-20T06:21:18;94935.44;;;5.71;84.10
69171;BME280;56279;47.902;12.308;2022-11-20T06:23:20;94935.97;;;5.73;84.10
69171;BME280;56279;47.902;12.308;2022-11-20T06:25:21;94929.69;;;5.74;83.61
69171;BME280;56279;47.902;12.308;2022-11-20T06:27:22;94932.06;;;5.75;83.75
69171;BME280;56279;47.902;12.308;2022-11-20T06:29:25;94929.16;;;5.77;83.95
69171;BME280;56279;47.902;12.308;2022-11-20T06:31:26;94933.09;;;5.79;83.60
69171;BME280;56279;47.902;12.308;2022-11-20T06:33:28;94927.63;;;5.81;83.61
69171;BME280;56279;47.902;12.308;2022-11-20T06:35:29;94931.81;;;5.82;83.01
69171;BME280;56279;47.902;12.308;2022-11-20T06:37:31;94936.00;;;5.83;83.28
69171;BME280;56279;47.902;12.308;2022-11-20T06:39:32;94941.00;;;5.84;83.56
69171;BME280;56279;47.902;12.308;2022-11-20T06:41:33;94943.41;;;5.86;83.02
69171;BME280;56279;47.902;12.308;2022-11-20T06:43:34;94943.41;;;5.86;83.44
69171;BME280;56279;47.902;12.308;2022-11-20T06:45:36;94944.97;;;5.87;83.36
69171;BME280;56279;47.902;12.308;2022-11-20T06:47:37;94949.41;;;5.86;83.46
69171;BME280;56279;47.902;12.308;2022-11-20T06:49:40;94952.28;;;5.85;83.41
69171;BME280;56279;47.902;12.308;2022-11-20T06:51:41;94949.66;;;5.85;83.35
69171;BME280;56279;47.902;12.308;2022-11-20T06:53:42;94960.66;;;5.87;83.42
69171;BME280;56279;47.902;12.308;2022-11-20T06:55:44;94957.78;;;5.88;83.20
69171;BME280;56279;47.902;12.308;2022-11-20T06:57:46;94960.16;;;5.90;83.65
69171;BME280;56279;47.902;12.308;2022-11-20T06:59:48;94960.97;;;5.90;83.49
69171;BME280;56279;47.902;12.308;2022-11-20T07:01:49;94965.13;;;5.91;83.56
69171;BME280;56279;47.902;12.308;2022-11-20T07:03:50;94970.91;;;5.93;82.98
69171;BME280;56279;47.902;12.308;2022-11-20T07:05:55;94965.66;;;5.93;83.27
69171;BME280;56279;47.902;12.308;2022-11-20T07:07:57;94966.19;;;5.95;83.16
69171;BME280;56279;47.902;12.308;2022-11-20T07:09:58;94961.50;;;5.97;82.65
69171;BME280;56279;47.902;12.308;2022-11-20T07:11:59;94970.94;;;5.98;83.01
69171;BME280;56279;47.902;12.308;2022-11-20T07:14:01;94965.41;;;6.00;82.44
69171;BME280;56279;47.902;12.308;2022-11-20T07:16:05;94967.00;;;6.01;82.69
69171;BME280;56279;47.902;12.308;2022-11-20T07:18:06;94975.41;;;6.03;82.63
69171;BME280;56279;47.902;12.308;2022-11-20T07:20:08;94970.44;;;6.06;82.29
69171;BME280;56279;47.902;12.308;2022-11-20T07:22:09;94976.44;;;6.07;82.12
69171;BME280;56279;47.902;12.308;2022-11-20T07:24:10;94981.69;;;6.07;82.18
69171;BME280;56279;47.902;12.308;2022-11-20T07:26:12;94981.19;;;6.10;81.72
69171;BME280;56279;47.902;12.308;2022-11-20T07:28:13;94975.16;;;6.09;81.91
69171;BME280;56279;47.902;12.308;2022-11-20T07:30:15;94980.16;;;6.11;81.57
69171;BME280;56279;47.902;12.308;2022-11-20T07:32:17;94977.78;;;6.09;81.73
69171;BME280;56279;47.902;12.308;2022-11-20T07:34:18;94976.75;;;6.10;81.58
69171;BME280;56279;47.902;12.308;2022-11-20T07:36:20;94983.28;;;6.13;81.16
69171;BME280;56279;47.902;12.308;2022-11-20T07:38:22;94985.41;;;6.16;81.17
69171;BME280;56279;47.902;12.308;2022-11-20T07:40:23;94977.00;;;6.19;81.20
69171;BME280;56279;47.902;12.308;2022-11-20T07:42:24;94977.31;;;6.22;81.05
69171;BME280;56279;47.902;12.308;2022-11-20T07:44:25;94981.78;;;6.27;80.54
69171;BME280;56279;47.902;12.308;2022-11-20T07:46:27;94977.84;;;6.30;80.69
69171;BME280;56279;47.902;12.308;2022-11-20T07:48:28;94977.59;;;6.31;80.37
69171;BME280;56279;47.902;12.308;2022-11-20T07:50:29;94981.00;;;6.32;80.60
69171;BME280;56279;47.902;12.308;2022-11-20T07:52:30;94978.66;;;6.30;80.63
69171;BME280;56279;47.902;12.308;2022-11-20T07:54:31;94976.78;;;6.31;80.55
69171;BME280;56279;47.902;12.308;2022-11-20T07:56:33;94977.31;;;6.28;80.84
69171;BME280;56279;47.902;12.308;2022-11-20T07:58:36;94980.97;;;6.26;80.60
69171;BME280;56279;47.902;12.308;2022-11-20T08:00:38;94982.28;;;6.24;80.68
69171;BME280;56279;47.902;12.308;2022-11-20T08:02:40;94979.63;;;6.19;81.20
69171;BME280;56279;47.902;12.308;2022-11-20T08:04:42;94980.91;;;6.11;81.29
69171;BME280;56279;47.902;12.308;2022-11-20T08:06:43;94979.06;;;6.07;81.86
69171;BME280;56279;47.902;12.308;2022-11-20T08:08:44;94985.38;;;6.06;81.71
69171;BME280;56279;47.902;12.308;2022-11-20T08:10:45;94981.94;;;6.05;81.47
69171;BME280;56279;47.902;12.308;2022-11-20T08:12:48;94982.47;;;6.07;81.78
69171;BME280;56279;47.902;12.308;2022-11-20T08:15:08;94987.75;;;6.12;81.33
69171;BME280;56279;47.902;12.308;2022-11-20T08:17:10;94987.25;;;6.20;81.06
69171;BME280;56279;47.902;12.308;2022-11-20T08:19:12;94983.59;;;6.26;81.13
69171;BME280;56279;47.902;12.308;2022-11-20T08:21:14;94979.16;;;6.32;80.70
69171;BME280;56279;47.902;12.308;2022-11-20T08:23:15;94978.38;;;6.32;80.48
69171;BME280;56279;47.902;12.308;2022-11-20T08:25:16;94979.16;;;6.27;80.45
69171;BME280;56279;47.902;12.308;2022-11-20T08:27:18;94975.47;;;6.23;80.76
69171;BME280;56279;47.902;12.308;2022-11-20T08:29:19;94984.09;;;6.18;80.98
69171;BME280;56279;47.902;12.308;2022-11-20T08:31:21;94982.78;;;6.16;80.16
69171;BME280;56279;47.902;12.308;2022-11-20T08:33:25;94981.72;;;6.12;80.32
69171;BME280;56279;47.902;12.308;2022-11-20T08:35:26;94975.69;;;6.11;80.25
69171;BME280;56279;47.902;12.308;2022-11-20T08:37:27;94983.03;;;6.14;80.04
69171;BME280;56279;47.902;12.308;2022-11-20T08:39:28;94987.75;;;6.17;79.66
69171;BME280;56279;47.902;12.308;2022-11-20T08:41:30;94985.41;;;6.21;79.76
69171;BME280;56279;47.902;12.308;2022-11-20T08:43:34;94982.00;;;6.25;79.03
69171;BME280;56279;47.902;12.308;2022-11-20T08:45:35;94985.44;;;6.31;79.00
69171;BME280;56279;47.902;12.308;2022-11-20T08:47:37;94993.34;;;6.41;78.43
69171;BME280;56279;47.902;12.308;2022-11-20T08:49:38;94993.34;;;6.56;77.86
69171;BME280;56279;47.902;12.308;2022-11-20T08:51:39;94989.72;;;6.72;77.91
69171;BME280;56279;47.902;12.308;2022-11-20T08:53:41;94988.44;;;6.90;77.08
69171;BME280;56279;47.902;12.308;2022-11-20T08:55:43;94988.19;;;7.02;76.37
69171;BME280;56279;47.902;12.308;2022-11-20T08:57:45;94985.56;;;7.12;75.55
69171;BME280;56279;47.902;12.308;2022-11-20T08:59:46;94986.59;;;7.21;75.20
69171;BME280;56279;47.902;12.308;2022-11-20T09:01:47;94984.75;;;7.26;75.01
69171;BME280;56279;47.902;12.308;2022-11-20T09:03:49;94985.53;;;7.32;74.52
69171;BME280;56279;47.902;12.308;2022-11-20T09:05:50;94987.66;;;7.35;74.32
69171;BME280;56279;47.902;12.308;2022-11-20T09:07:52;94988.16;;;7.37;73.67
69171;BME280;56279;47.902;12.308;2022-11-20T09:09:56;94986.56;;;7.41;73.78
69171;BME280;56279;47.902;12.308;2022-11-20T09:11:58;94985.53;;;7.42;73.83
69171;BME280;56279;47.902;12.308;2022-11-20T09:14:00;94988.69;;;7.44;73.64
69171;BME280;56279;47.902;12.308;2022-11-20T09:16:06;94987.38;;;7.46;73.41
69171;BME280;56279;47.902;12.308;2022-11-20T09:18:08;94984.47;;;7.48;72.69
69171;BME280;56279;47.902;12.308;2022-11-20T09:20:10;94981.03;;;7.47;72.60
69171;BME280;56279;47.902;12.308;2022-11-20T09:22:13;94983.44;;;7.49;72.83
69171;BME280;56279;47.902;12.308;2022-11-20T09:24:14;94988.13;;;7.52;72.56
69171;BME280;56279;47.902;12.308;2022-11-20T09:26:15;94974.19;;;7.56;72.62
69171;BME280;56279;47.902;12.308;2022-11-20T09:28:16;94981.81;;;7.63;71.81
69171;BME280;56279;47.902;12.308;2022-11-20T09:30:19;94982.84;;;7.67;71.60
69171;BME280;56279;47.902;12.308;2022-11-20T09:32:20;94980.75;;;7.74;71.38
69171;BME280;56279;47.902;12.308;2022-11-20T09:34:21;94977.03;;;7.80;71.25
69171;BME280;56279;47.902;12.308;2022-11-20T09:36:23;94970.16;;;7.89;70.74
69171;BME280;56279;47.902;12.308;2022-11-20T09:38:24;94968.31;;;8.00;70.22
69171;BME280;56279;47.902;12.308;2022-11-20T09:40:28;94966.97;;;8.02;69.56
69171;BME280;56279;47.902;12.308;2022-11-20T09:54:15;94959.81;;;8.28;68.45
69171;BME280;56279;47.902;12.308;2022-11-20T09:56:19;94958.19;;;8.32;68.25
69171;BME280;56279;47.902;12.308;2022-11-20T09:58:27;94960.81;;;8.32;68.00
69171;BME280;56279;47.902;12.308;2022-11-20T10:00:30;94957.66;;;8.35;68.13
69171;BME280;56279;47.902;12.308;2022-11-20T10:02:45;94960.53;;;8.33;67.64
69171;BME280;56279;47.902;12.308;2022-11-20T10:05:06;94953.75;;;8.27;67.12
69171;BME280;56279;47.902;12.308;2022-11-20T10:07:19;94946.38;;;8.24;66.40
69171;BME280;56279;47.902;12.308;2022-11-20T10:09:29;94946.66;;;8.23;65.81
69171;BME280;56279;47.902;12.308;2022-11-20T10:14:01;94946.94;;;8.16;64.55
69171;BME280;56279;47.902;12.308;2022-11-20T10:21:06;94947.97;;;8.20;65.53
69171;BME280;56279;47.902;12.308;2022-11-20T10:27:49;94945.31;;;8.25;65.54
69171;BME280;56279;47.902;12.308;2022-11-20T10:30:09;94942.19;;;8.23;65.42
69171;BME280;56279;47.902;12.308;2022-11-20T10:32:17;94933.78;;;8.26;65.02
69171;BME280;56279;47.902;12.308;2022-11-20T10:36:26;94935.88;;;8.29;65.50
69171;BME280;56279;47.902;12.308;2022-11-20T10:38:37;94928.47;;;8.31;65.25
69171;BME280;56279;47.902;12.308;2022-11-20T10:40:48;94921.91;;;8.34;64.84
69171;BME280;56279;47.902;12.308;2022-11-20T10:43:16;94916.38;;;8.35;65.10
69171;BME280;56279;47.902;12.308;2022-11-20T10:46:01;94922.38;;;8.41;64.47
69171;BME280;56279;47.902;12.308;2022-11-20T10:47:43;94915.28;;;8.42;64.22
69171;BME280;56279;47.902;12.308;2022-11-20T10:49:53;94912.94;;;8.40;63.84
69171;BME280;56279;47.902;12.308;2022-11-20T10:51:59;94908.44;;;8.41;63.10
69171;BME280;56279;47.902;12.308;2022-11-20T10:57:10;94908.41;;;8.46;62.93
69171;BME280;56279;47.902;12.308;2022-11-20T11:00:46;94911.00;;;8.56;62.38
69171;BME280;56279;47.902;12.308;2022-11-20T11:02:54;94908.88;;;8.58;61.72
69171;BME280;56279;47.902;12.308;2022-11-20T11:07:35;94904.91;;;8.60;61.24
69171;BME280;56279;47.902;12.308;2022-11-20T11:09:43;94906.47;;;8.61;60.95
69171;BME280;56279;47.902;12.308;2022-11-20T11:11:45;94907.75;;;8.64;60.88
69171;BME280;56279;47.902;12.308;2022-11-20T11:13:46;94899.09;;;8.63;60.39
69171;BME280;56279;47.902;12.308;2022-11-20T11:15:47;94899.31;;;8.67;60.47
69171;BME280;56279;47.902;12.308;2022-11-20T11:17:49;94890.63;;;8.71;60.04
69171;BME280;56279;47.902;12.308;2022-11-20T11:20:06;94905.06;;;8.74;60.63
69171;BME280;56279;47.902;12.308;2022-11-20T11:22:11;94901.06;;;8.81;60.09
69171;BME280;56279;47.902;12.308;2022-11-20T11:24:22;94896.59;;;8.82;59.47
69171;BME280;56279;47.902;12.308;2022-11-20T11:26:24;94889.75;;;8.81;59.13
69171;BME280;56279;47.902;12.308;2022-11-20T11:28:26;94893.69;;;8.83;59.55
69171;BME280;56279;47.902;12.308;2022-11-20T11:30:44;94884.44;;;8.86;59.61